.
WxDataArchive / Data Records for 2007-03-20
2007-03-19 March 2007 2007-03-21

Data Records for Tuesday, 20 March 2007

Time	Temp	Chill	HIndex	Humid	Dewpt	 Wind 	HiWind	WindDir	Rain 	Barom 
-----	----	-----	------	-----	-----	------	------	-------	-----	----- 
00:00	42.6	42.6	42.6	72	34.2	0	2	315	0.00	30.164 
00:05	42.5	42.5	42.5	71	33.8	0	1	315	0.00	30.166 
00:10	42.2	42.2	42.2	71	33.5	0	1	315	0.00	30.167 
00:15	42.1	42.1	42.1	71	33.4	0	1	315	0.00	30.169 
00:20	41.6	41.6	41.6	72	33.3	0	0	---	0.00	30.174 
00:25	41.3	41.3	41.3	72	33.0	0	1	315	0.00	30.179 
00:30	40.9	40.9	40.9	73	32.9	0	0	---	0.00	30.182 
00:35	40.6	40.6	40.6	73	32.6	0	0	---	0.00	30.183 
00:40	40.2	40.2	40.2	74	32.6	0	0	---	0.00	30.184 
00:45	39.8	39.8	39.8	75	32.5	0	0	---	0.00	30.185 
00:50	39.3	39.3	39.3	76	32.4	0	0	---	0.00	30.188 
00:55	39.1	39.1	39.1	76	32.2	0	0	---	0.00	30.189 
01:00	39.1	39.1	39.1	76	32.2	0	0	---	0.00	30.192 
01:05	38.8	38.8	38.8	76	31.9	0	0	---	0.00	30.191 
01:10	38.5	38.5	38.5	76	31.6	0	0	---	0.00	30.192 
01:15	38.0	38.0	38.0	77	31.4	0	0	---	0.00	30.197 
01:20	37.6	37.6	37.6	78	31.4	0	0	---	0.00	30.199 
01:25	37.2	37.2	37.2	79	31.3	0	0	---	0.00	30.204 
01:30	36.8	36.8	36.8	80	31.2	0	1	315	0.00	30.207 
01:35	36.5	36.5	36.5	81	31.2	0	0	---	0.00	30.216 
01:40	36.3	36.3	36.3	80	30.7	0	0	---	0.00	30.218 
01:45	36.0	36.0	36.0	81	30.7	0	0	---	0.00	30.219 
01:50	35.6	35.6	35.6	81	30.4	0	0	---	0.00	30.219 
01:55	35.3	35.3	35.3	82	30.4	0	0	---	0.00	30.222 
02:00	35.0	35.0	35.0	82	30.1	0	0	---	0.00	30.225 
02:05	34.7	34.7	34.7	82	29.8	0	0	---	0.00	30.226 
02:10	34.3	34.3	34.3	83	29.7	0	0	---	0.00	30.228 
02:15	34.0	34.0	34.0	84	29.7	0	0	---	0.00	30.229 
02:20	33.5	33.5	33.5	84	29.2	0	0	---	0.00	30.232 
02:25	33.4	33.4	33.4	85	29.4	0	0	---	0.00	30.235 
02:30	33.1	33.1	33.1	85	29.1	0	0	---	0.00	30.237 
02:35	32.8	32.8	32.8	85	28.8	0	0	---	0.00	30.240 
02:40	32.5	32.5	32.5	85	28.5	0	0	---	0.00	30.241 
02:45	32.1	32.1	32.1	86	28.4	0	0	---	0.00	30.242 
02:50	31.8	31.8	31.8	86	28.1	0	0	---	0.00	30.245 
02:55	31.6	31.6	31.6	87	28.2	0	0	---	0.00	30.248 
03:00	31.3	31.3	31.3	87	27.9	0	0	---	0.00	30.251 
03:05	31.2	31.2	31.2	88	28.1	0	0	---	0.00	30.251 
03:10	31.0	31.0	31.0	88	27.9	0	0	---	0.00	30.254 
03:15	30.9	30.9	30.9	88	27.8	0	0	---	0.00	30.254 
03:20	30.7	30.7	30.7	89	27.8	0	0	---	0.00	30.256 
03:25	30.6	30.6	30.6	89	27.8	0	0	---	0.00	30.259 
03:30	30.7	30.7	30.7	90	28.1	0	0	---	0.00	30.261 
03:35	31.5	31.5	31.5	91	29.2	0	1	315	0.00	30.266 
03:40	32.2	32.2	32.2	91	29.9	0	1	315	0.00	30.265 
03:45	33.1	33.1	33.1	90	30.5	0	1	315	0.00	30.267 
03:50	33.5	33.5	33.5	88	30.3	0	1	315	0.00	30.267 
03:55	33.8	33.8	33.8	87	30.3	0	0	---	0.00	30.268 
04:00	34.0	34.0	34.0	86	30.3	0	1	315	0.00	30.268 
04:05	34.0	34.0	34.0	84	29.7	0	1	315	0.00	30.269 
04:10	34.3	34.3	34.3	84	30.0	0	1	315	0.00	30.276 
04:15	34.6	34.6	34.6	83	30.0	0	1	315	0.00	30.278 
04:20	34.6	34.6	34.6	82	29.7	0	1	315	0.00	30.282 
04:25	34.6	34.6	34.6	82	29.7	0	1	315	0.00	30.287 
04:30	34.6	34.6	34.6	81	29.4	0	1	315	0.00	30.291 
04:35	34.6	34.6	34.6	81	29.4	0	0	---	0.00	30.294 
04:40	34.4	34.4	34.4	80	28.9	0	1	315	0.00	30.297 
04:45	34.6	34.6	34.6	80	29.1	0	1	315	0.00	30.299 
04:50	34.6	34.6	34.6	79	28.8	0	1	315	0.00	30.303 
04:55	34.4	34.4	34.4	79	28.6	0	1	315	0.00	30.310 
05:00	34.4	34.4	34.4	79	28.6	0	1	315	0.00	30.312 
05:05	34.3	34.3	34.3	79	28.5	0	1	315	0.00	30.313 
05:10	34.1	34.1	34.1	79	28.3	0	2	315	0.00	30.313 
05:15	34.1	34.1	34.1	78	28.0	0	2	338	0.00	30.319 
05:20	34.1	34.1	34.1	78	28.0	0	2	338	0.00	30.320 
05:25	34.0	34.0	34.0	78	27.9	0	1	338	0.00	30.325 
05:30	33.8	33.8	33.8	78	27.7	0	1	338	0.00	30.328 
05:35	33.7	33.7	33.7	78	27.6	0	1	338	0.00	30.333 
05:40	33.4	33.4	33.4	79	27.6	0	0	---	0.00	30.339 
05:45	33.1	33.1	33.1	79	27.3	0	1	338	0.00	30.344 
05:50	32.9	32.9	32.9	79	27.1	0	1	338	0.00	30.350 
05:55	32.8	32.8	32.8	80	27.3	0	1	338	0.00	30.349 
06:00	32.5	32.5	32.5	80	27.0	0	0	---	0.00	30.355 
06:05	32.4	32.4	32.4	80	26.9	0	1	338	0.00	30.361 
06:10	32.4	32.4	32.4	80	26.9	0	1	338	0.00	30.364 
06:15	32.4	32.4	32.4	80	26.9	0	4	0	0.00	30.368 
06:20	32.5	32.5	32.5	79	26.7	0	3	112	0.00	30.370 
06:25	32.5	32.5	32.5	78	26.4	0	1	112	0.00	30.373 
06:30	32.4	32.4	32.4	77	26.0	1	3	112	0.00	30.377 
06:35	32.4	32.4	32.4	77	26.0	0	2	68	0.00	30.379 
06:40	32.4	32.4	32.4	77	26.0	0	2	68	0.00	30.382 
06:45	32.2	32.2	32.2	77	25.8	0	1	45	0.00	30.389 
06:50	32.1	32.1	32.1	77	25.7	0	1	45	0.00	30.391 
06:55	32.1	32.1	32.1	77	25.7	0	2	45	0.00	30.393 
07:00	31.9	31.9	31.9	77	25.5	0	1	45	0.00	30.394 
07:05	31.8	31.8	31.8	78	25.7	0	2	45	0.00	30.398 
07:10	31.9	31.9	31.9	77	25.5	0	2	112	0.00	30.400 
07:15	32.2	32.2	32.2	77	25.8	0	2	90	0.00	30.404 
07:20	32.5	32.5	32.5	75	25.5	1	3	68	0.00	30.407 
07:25	32.9	32.9	32.9	75	25.9	1	2	90	0.00	30.408 
07:30	33.4	33.4	33.4	74	26.0	0	3	68	0.00	30.411 
07:35	33.8	33.8	33.8	73	26.1	0	1	68	0.00	30.412 
07:40	34.3	34.3	34.3	72	26.2	0	4	45	0.00	30.416 
07:45	34.4	34.4	34.4	71	26.0	0	2	22	0.00	30.417 
07:50	34.4	34.4	34.4	71	26.0	1	5	68	0.00	30.421 
07:55	34.3	34.3	34.3	71	25.9	1	4	68	0.00	30.422 
08:00	34.4	34.4	34.4	72	26.3	1	3	68	0.00	30.423 
08:05	34.3	34.3	34.3	71	25.9	2	4	45	0.00	30.424 
08:10	34.3	34.3	34.3	71	25.9	1	3	45	0.00	30.426 
08:15	34.3	34.3	34.3	71	25.9	1	4	90	0.00	30.432 
08:20	34.3	34.3	34.3	70	25.5	2	4	68	0.00	30.436 
08:25	34.3	34.3	34.3	70	25.5	2	5	45	0.00	30.437 
08:30	34.4	34.4	34.4	69	25.3	3	9	90	0.00	30.438 
08:35	34.6	34.6	34.6	70	25.8	2	7	90	0.00	30.439 
08:40	34.9	34.9	34.9	69	25.8	3	11	112	0.00	30.441 
08:45	35.0	35.0	35.0	71	26.6	3	8	112	0.00	30.442 
08:50	35.0	35.0	35.0	70	26.2	3	9	90	0.00	30.446 
08:55	35.3	35.3	35.3	69	26.2	2	9	90	0.00	30.450 
09:00	35.6	35.6	35.6	67	25.7	3	8	112	0.00	30.451 
09:05	35.8	35.8	35.8	66	25.6	2	6	45	0.00	30.456 
09:10	35.9	35.9	35.9	67	26.0	2	6	45	0.00	30.457 
09:15	36.0	36.0	36.0	65	25.4	3	11	112	0.00	30.466 
09:20	36.2	32.0	36.2	66	26.0	5	11	112	0.00	30.468 
09:25	36.2	32.9	36.2	66	26.0	4	11	112	0.00	30.471 
09:30	36.2	31.2	36.2	65	25.6	6	11	112	0.00	30.472 
09:35	36.2	32.9	36.2	67	26.3	4	10	90	0.00	30.472 
09:40	36.5	33.3	36.5	65	25.9	4	10	22	0.00	30.473 
09:45	36.5	32.4	36.5	65	25.9	5	11	112	0.00	30.474 
09:50	36.6	31.7	36.6	63	25.2	6	14	112	0.00	30.478 
09:55	36.6	32.5	36.6	67	26.7	5	14	112	0.00	30.477 
10:00	36.3	30.7	36.3	65	25.7	7	14	112	0.00	30.484 
10:05	36.5	33.3	36.5	67	26.6	4	10	45	0.00	30.485 
10:10	36.9	36.9	36.9	65	26.3	3	7	22	0.00	30.488 
10:15	37.0	33.9	37.0	68	27.4	4	8	112	0.00	30.489 
10:20	37.5	33.5	37.5	63	26.1	5	11	112	0.00	30.491 
10:25	36.9	32.1	36.9	64	25.9	6	13	112	0.00	30.496 
10:30	37.2	37.2	37.2	66	26.9	3	10	45	0.00	30.495 
10:35	37.2	32.4	37.2	67	27.3	6	10	112	0.00	30.496 
10:40	37.2	32.4	37.2	66	26.9	6	13	112	0.00	30.495 
10:45	37.6	37.6	37.6	68	28.0	3	10	112	0.00	30.496 
10:50	38.2	35.2	38.2	65	27.5	4	9	22	0.00	30.500 
10:55	38.0	33.4	38.0	63	26.5	6	13	112	0.00	30.503 
11:00	38.2	35.2	38.2	65	27.5	4	11	112	0.00	30.504 
11:05	38.6	34.8	38.6	62	26.7	5	16	112	0.00	30.501 
11:10	38.5	34.0	38.5	65	27.8	6	13	112	0.00	30.501 
11:15	38.6	34.8	38.6	63	27.1	5	12	112	0.00	30.502 
11:20	38.9	34.4	38.9	63	27.4	6	14	90	0.00	30.502 
11:25	39.1	35.4	39.1	62	27.2	5	12	90	0.00	30.503 
11:30	39.3	35.7	39.3	63	27.8	5	14	90	0.00	30.505 
11:35	39.3	34.9	39.3	62	27.4	6	12	112	0.00	30.501 
11:40	39.3	35.7	39.3	61	27.0	5	12	112	0.00	30.502 
11:45	39.5	35.2	39.5	62	27.6	6	12	112	0.00	30.501 
11:50	39.9	36.4	39.9	60	27.2	5	14	112	0.00	30.503 
11:55	39.8	34.9	39.8	59	26.7	7	15	90	0.00	30.502 
12:00	39.8	35.5	39.8	59	26.7	6	12	112	0.00	30.503 
12:05	40.3	37.7	40.3	58	26.7	4	13	112	0.00	30.507 
12:10	40.5	37.1	40.5	61	28.1	5	12	112	0.00	30.508 
12:15	40.6	36.5	40.6	58	27.0	6	15	112	0.00	30.509 
12:20	40.5	35.7	40.5	59	27.3	7	13	112	0.00	30.509 
12:25	40.5	37.1	40.5	58	26.9	5	11	112	0.00	30.509 
12:30	40.9	37.5	40.9	57	26.9	5	13	112	0.00	30.506 
12:35	40.9	36.8	40.9	57	26.9	6	13	112	0.00	30.504 
12:40	40.9	37.5	40.9	57	26.9	5	12	112	0.00	30.508 
12:45	41.2	38.7	41.2	60	28.4	4	9	112	0.00	30.506 
12:50	41.5	38.2	41.5	59	28.3	5	12	112	0.00	30.506 
12:55	41.8	39.4	41.8	62	29.7	4	10	112	0.00	30.506 
13:00	41.5	38.2	41.5	57	27.4	5	13	112	0.00	30.506 
13:05	41.6	37.7	41.6	59	28.3	6	10	112	0.00	30.507 
13:10	41.8	37.9	41.8	56	27.3	6	14	112	0.00	30.505 
13:15	42.1	39.7	42.1	57	28.0	4	9	112	0.00	30.506 
13:20	42.2	39.1	42.2	58	28.5	5	13	112	0.00	30.504 
13:25	42.2	39.9	42.2	58	28.5	4	12	112	0.00	30.498 
13:30	42.2	38.4	42.2	56	27.6	6	16	112	0.00	30.494 
13:35	42.3	39.2	42.3	57	28.2	5	12	90	0.00	30.498 
13:40	43.1	40.9	43.1	57	28.9	4	7	112	0.00	30.492 
13:45	43.3	40.3	43.3	57	29.1	5	11	112	0.00	30.488 
13:50	43.1	40.1	43.1	56	28.5	5	14	90	0.00	30.489 
13:55	42.5	38.7	42.5	57	28.4	6	13	112	0.00	30.489 
14:00	42.8	39.8	42.8	54	27.3	5	12	112	0.00	30.489 
14:05	42.8	39.8	42.8	54	27.3	5	10	112	0.00	30.493 
14:10	43.3	40.3	43.3	53	27.3	5	15	112	0.00	30.492 
14:15	43.5	40.6	43.5	56	28.9	5	16	112	0.00	30.489 
14:20	43.5	39.9	43.5	52	27.1	6	13	112	0.00	30.491 
14:25	43.2	39.0	43.2	53	27.2	7	16	112	0.00	30.490 
14:30	42.6	37.8	42.6	54	27.1	8	13	112	0.00	30.489 
14:35	42.6	38.9	42.6	57	28.4	6	13	112	0.00	30.488 
14:40	42.8	38.5	42.8	50	25.5	7	14	112	0.00	30.491 
14:45	42.6	38.3	42.6	55	27.6	7	13	112	0.00	30.493 
14:50	42.5	38.2	42.5	55	27.5	7	15	90	0.00	30.491 
14:55	42.8	39.1	42.8	54	27.3	6	15	112	0.00	30.491 
15:00	42.8	38.5	42.8	53	26.9	7	12	112	0.00	30.492 
15:05	42.6	38.9	42.6	51	25.8	6	15	112	0.00	30.489 
15:10	42.6	38.3	42.6	53	26.7	7	13	112	0.00	30.491 
15:15	42.2	37.8	42.2	51	25.4	7	14	112	0.00	30.492 
15:20	41.9	37.4	41.9	54	26.5	7	13	112	0.00	30.492 
15:25	42.1	37.7	42.1	50	24.8	7	17	112	0.00	30.496 
15:30	41.9	38.0	41.9	55	26.9	6	14	90	0.00	30.494 
15:35	42.2	39.1	42.2	53	26.3	5	11	112	0.00	30.496 
15:40	42.2	38.4	42.2	56	27.6	6	14	112	0.00	30.497 
15:45	42.1	38.3	42.1	57	28.0	6	14	112	0.00	30.494 
15:50	41.9	36.9	41.9	54	26.5	8	15	90	0.00	30.495 
15:55	41.6	36.5	41.6	52	25.3	8	13	112	0.00	30.491 
16:00	41.3	36.7	41.3	53	25.5	7	15	112	0.00	30.494 
16:05	41.3	36.7	41.3	55	26.4	7	13	112	0.00	30.494 
16:10	41.2	36.6	41.2	57	27.1	7	14	112	0.00	30.494 
16:15	41.2	36.6	41.2	54	25.8	7	12	112	0.00	30.495 
16:20	41.3	37.3	41.3	55	26.4	6	12	112	0.00	30.492 
16:25	41.2	36.0	41.2	54	25.8	8	19	90	0.00	30.490 
16:30	41.1	36.5	41.1	56	26.6	7	14	112	0.00	30.486 
16:35	41.1	37.1	41.1	54	25.7	6	13	112	0.00	30.493 
16:40	41.1	37.1	41.1	54	25.7	6	11	112	0.00	30.495 
16:45	41.1	37.1	41.1	55	26.2	6	14	112	0.00	30.494 
16:50	40.8	36.1	40.8	53	25.0	7	13	112	0.00	30.493 
16:55	40.6	35.9	40.6	55	25.7	7	15	112	0.00	30.492 
17:00	40.5	36.4	40.5	58	26.9	6	12	112	0.00	30.491 
17:05	40.2	35.4	40.2	53	24.5	7	15	112	0.00	30.494 
17:10	40.2	36.0	40.2	53	24.5	6	13	112	0.00	30.493 
17:15	39.9	34.5	39.9	52	23.7	8	15	112	0.00	30.491 
17:20	39.9	34.5	39.9	52	23.7	8	13	112	0.00	30.489 
17:25	39.9	35.6	39.9	55	25.1	6	11	112	0.00	30.488 
17:30	39.6	34.7	39.6	56	25.2	7	13	112	0.00	30.492 
17:35	39.5	35.2	39.5	57	25.5	6	13	112	0.00	30.488 
17:40	39.2	33.6	39.2	56	24.8	8	15	90	0.00	30.484 
17:45	39.1	34.1	39.1	57	25.2	7	14	112	0.00	30.489 
17:50	38.9	33.8	38.9	57	25.0	7	17	112	0.00	30.489 
17:55	38.8	34.3	38.8	57	24.9	6	14	90	0.00	30.491 
18:00	38.5	33.3	38.5	57	24.6	7	13	112	0.00	30.489 
18:05	38.3	33.7	38.3	58	24.8	6	11	112	0.00	30.487 
18:10	38.0	34.1	38.0	60	25.4	5	12	90	0.00	30.488 
18:15	37.8	33.9	37.8	61	25.6	5	13	112	0.00	30.492 
18:20	37.6	34.5	37.6	61	25.4	4	11	112	0.00	30.488 
18:25	37.3	33.3	37.3	59	24.3	5	12	112	0.00	30.490 
18:30	37.0	31.5	37.0	59	24.0	7	12	112	0.00	30.490 
18:35	36.8	32.7	36.8	59	23.8	5	11	90	0.00	30.491 
18:40	36.5	33.3	36.5	60	24.0	4	10	90	0.00	30.497 
18:45	36.2	31.2	36.2	60	23.7	6	14	112	0.00	30.497 
18:50	35.9	32.6	35.9	61	23.8	4	9	90	0.00	30.498 
18:55	35.8	32.5	35.8	62	24.1	4	10	112	0.00	30.497 
19:00	35.5	31.2	35.5	63	24.2	5	9	112	0.00	30.497 
19:05	35.3	31.9	35.3	64	24.4	4	9	112	0.00	30.499 
19:10	35.0	31.5	35.0	65	24.4	4	9	112	0.00	30.495 
19:15	34.9	30.5	34.9	65	24.3	5	11	112	0.00	30.489 
19:20	34.6	30.1	34.6	65	24.1	5	10	90	0.00	30.488 
19:25	34.3	30.7	34.3	67	24.5	4	9	90	0.00	30.485 
19:30	34.0	34.0	34.0	68	24.6	3	10	112	0.00	30.487 
19:35	33.7	33.7	33.7	69	24.6	3	11	112	0.00	30.484 
19:40	33.5	33.5	33.5	70	24.8	3	8	112	0.00	30.483 
19:45	33.2	29.5	33.2	70	24.5	4	12	112	0.00	30.483 
19:50	33.1	29.3	33.1	69	24.1	4	10	112	0.00	30.490 
19:55	32.9	32.9	32.9	70	24.2	3	5	90	0.00	30.496 
20:00	32.8	29.0	32.8	70	24.1	4	10	90	0.00	30.495 
20:05	32.7	27.9	32.7	69	23.7	5	13	112	0.00	30.494 
20:10	32.5	26.8	32.5	69	23.5	6	11	112	0.00	30.494 
20:15	32.4	27.5	32.4	69	23.4	5	10	112	0.00	30.486 
20:20	32.2	25.7	32.2	69	23.2	7	14	90	0.00	30.485 
20:25	31.9	26.1	31.9	69	22.9	6	13	90	0.00	30.483 
20:30	31.8	26.0	31.8	70	23.2	6	11	90	0.00	30.483 
20:35	31.6	26.6	31.6	70	23.0	5	10	90	0.00	30.482 
20:40	31.5	24.9	31.5	70	22.9	7	15	112	0.00	30.477 
20:45	31.3	26.3	31.3	71	23.0	5	11	112	0.00	30.483 
20:50	31.2	26.1	31.2	71	22.9	5	10	112	0.00	30.485 
20:55	31.0	26.9	31.0	72	23.1	4	10	112	0.00	30.485 
21:00	30.7	26.6	30.7	73	23.1	4	7	112	0.00	30.488 
21:05	30.6	30.6	30.6	74	23.3	3	6	90	0.00	30.487 
21:10	30.4	26.2	30.4	75	23.4	4	7	90	0.00	30.485 
21:15	30.1	30.1	30.1	76	23.5	3	9	112	0.00	30.483 
21:20	30.1	24.8	30.1	76	23.5	5	11	90	0.00	30.482 
21:25	30.0	24.7	30.0	76	23.4	5	11	90	0.00	30.478 
21:30	30.0	24.7	30.0	76	23.4	5	11	112	0.00	30.480 
21:35	29.8	25.5	29.8	76	23.2	4	12	112	0.00	30.481 
21:40	29.7	25.4	29.7	76	23.1	4	8	90	0.00	30.480 
21:45	29.7	24.4	29.7	76	23.1	5	11	112	0.00	30.474 
21:50	29.5	24.1	29.5	76	22.9	5	10	112	0.00	30.482 
21:55	29.4	24.0	29.4	76	22.8	5	10	112	0.00	30.478 
22:00	29.4	24.0	29.4	76	22.8	5	13	112	0.00	30.478 
22:05	29.3	23.9	29.3	76	22.7	5	10	90	0.00	30.483 
22:10	29.1	24.7	29.1	77	22.8	4	10	112	0.00	30.481 
22:15	29.1	24.7	29.1	77	22.8	4	10	90	0.00	30.482 
22:20	29.0	24.6	29.0	77	22.7	4	7	90	0.00	30.482 
22:25	28.8	24.4	28.8	77	22.5	4	9	90	0.00	30.476 
22:30	28.8	23.3	28.8	76	22.2	5	12	90	0.00	30.474 
22:35	28.7	23.2	28.7	76	22.1	5	10	90	0.00	30.472 
22:40	28.7	24.3	28.7	76	22.1	4	7	112	0.00	30.472 
22:45	28.5	24.0	28.5	76	21.9	4	8	90	0.00	30.470 
22:50	28.4	23.9	28.4	76	21.8	4	8	90	0.00	30.469 
22:55	28.4	28.4	28.4	77	22.1	3	7	112	0.00	30.468 
23:00	28.2	22.6	28.2	76	21.6	5	10	90	0.00	30.467 
23:05	28.2	23.7	28.2	77	21.9	4	8	90	0.00	30.466 
23:10	28.1	22.5	28.1	77	21.8	5	10	90	0.00	30.463 
23:15	28.1	23.6	28.1	77	21.8	4	9	112	0.00	30.465 
23:20	27.9	27.9	27.9	77	21.6	3	7	112	0.00	30.461 
23:25	27.9	23.3	27.9	77	21.6	4	8	90	0.00	30.458 
23:30	27.9	23.3	27.9	77	21.6	4	10	112	0.00	30.462 
23:35	27.8	27.8	27.8	77	21.5	3	6	112	0.00	30.459 
23:40	27.8	23.2	27.8	77	21.5	4	8	90	0.00	30.463 
23:45	27.8	27.8	27.8	77	21.5	3	8	112	0.00	30.454 
23:50	27.6	23.0	27.6	77	21.4	4	11	90	0.00	30.453 
23:55	27.6	23.0	27.6	78	21.7	4	7	112	0.00	30.452 

CoCoRaHS
IN-AL-39
A2 Web Hosting
Creative Commons License
GoDaddy
Look for:

loaded 2017-10-19 14:47:20 • last modified 2010-11-18 10:43:29
Privacy PolicyDisclaimer
• wx.awcolley.com is powered by PmWiki v.2002016 •
• all content (unless otherwise noted) © 2017 A W Colley